Time;durP1;ratioP1;P1;durP2;ratioP2;P2;SDS_P1;SDS_P2;PMS_P1;PMS_P2;Temp;Humidity;BMP_temperature;BMP_pressure;BME280_temperature;BME280_humidity;BME280_pressure;Samples;Min_cycle;Max_cycle;Signal;HPM_P1;HPM_P2
2022/10/20 00:01:22;;;;;;;15.47;11.93;;;12.40;1.00;;;;;;5047219;28;20440;-67
2022/10/20 00:03:48;;;;;;;13.80;10.43;;;12.20;1.00;;;;;;5048930;28;20412;-66
2022/10/20 00:06:20;;;;;;;12.53;11.20;;;12.30;1.00;;;;;;5046165;28;20482;-66
2022/10/20 00:08:46;;;;;;;17.70;11.27;;;12.20;1.00;;;;;;5048700;28;20401;-67
2022/10/20 00:11:15;;;;;;;15.17;11.77;;;12.10;1.00;;;;;;5047433;28;20524;-66
2022/10/20 00:13:44;;;;;;;14.60;12.70;;;12.10;1.00;;;;;;5048846;28;20455;-67
2022/10/20 00:16:10;;;;;;;16.33;12.13;;;12.20;1.00;;;;;;5046236;28;20415;-67
2022/10/20 00:18:37;;;;;;;13.50;11.00;;;12.10;1.00;;;;;;5048970;28;20583;-66
2022/10/20 00:21:08;;;;;;;17.60;12.80;;;12.10;1.00;;;;;;5048190;28;20759;-66
2022/10/20 00:23:33;;;;;;;16.80;12.67;;;12.00;1.00;;;;;;5049543;28;20765;-67
2022/10/20 00:26:05;;;;;;;16.67;12.83;;;12.10;1.00;;;;;;5051852;28;20405;-67
2022/10/20 00:28:30;;;;;;;17.10;11.07;;;12.00;1.00;;;;;;5052378;28;20529;-66
2022/10/20 00:30:56;;;;;;;18.07;12.63;;;11.90;1.00;;;;;;5052931;28;20471;-66
2022/10/20 00:33:23;;;;;;;17.23;12.27;;;12.10;1.00;;;;;;5054040;28;20781;-67
2022/10/20 00:35:49;;;;;;;16.40;12.17;;;12.00;1.00;;;;;;5052242;28;20190;-66
2022/10/20 00:38:15;;;;;;;13.83;11.80;;;12.10;1.00;;;;;;5052417;28;20465;-67
2022/10/20 00:40:41;;;;;;;14.53;10.70;;;11.90;1.00;;;;;;5050998;28;20171;-66
2022/10/20 00:43:14;;;;;;;14.23;11.87;;;11.90;1.00;;;;;;5051925;28;20717;-66
2022/10/20 00:45:42;;;;;;;16.40;11.73;;;12.00;1.00;;;;;;5051469;28;20179;-67
2022/10/20 00:48:15;;;;;;;14.00;11.63;;;12.00;1.00;;;;;;5052052;28;20466;-66
2022/10/20 00:50:45;;;;;;;14.93;11.53;;;11.90;1.00;;;;;;5051128;28;20910;-65
2022/10/20 00:53:11;;;;;;;16.93;13.50;;;11.80;1.00;;;;;;5051997;28;20475;-66
2022/10/20 00:55:41;;;;;;;15.17;13.07;;;11.90;1.00;;;;;;5051483;28;20409;-66
2022/10/20 00:58:07;;;;;;;16.57;11.60;;;11.90;1.00;;;;;;5051725;28;20441;-67
2022/10/20 01:00:33;;;;;;;14.10;12.13;;;11.90;1.00;;;;;;5050478;28;20410;-66
2022/10/20 01:03:00;;;;;;;15.80;12.40;;;11.80;1.00;;;;;;5051690;28;21147;-66
2022/10/20 01:05:26;;;;;;;14.40;10.40;;;11.80;1.00;;;;;;5051319;28;20410;-66
2022/10/20 01:07:52;;;;;;;14.63;10.90;;;11.70;1.00;;;;;;5051836;28;20410;-66
2022/10/20 01:10:20;;;;;;;16.77;11.90;;;11.70;1.00;;;;;;5051164;28;20417;-66
2022/10/20 01:12:56;;;;;;;17.10;13.43;;;11.70;1.00;;;;;;5050957;28;20205;-66
2022/10/20 01:15:27;;;;;;;15.60;12.17;;;11.90;1.00;;;;;;5049332;28;20409;-66
2022/10/20 01:18:17;;;;;;;16.73;12.80;;;11.90;1.00;;;;;;5051757;28;20492;-65
2022/10/20 01:21:17;;;;;;;14.90;11.67;;;11.90;1.00;;;;;;5050605;28;20785;-66
2022/10/20 01:23:55;;;;;;;16.00;12.30;;;11.80;1.00;;;;;;5051192;28;20404;-67
2022/10/20 01:26:29;;;;;;;14.70;11.63;;;11.70;1.00;;;;;;5051416;28;20751;-67
2022/10/20 01:29:03;;;;;;;16.00;12.53;;;11.60;1.00;;;;;;5051430;28;20470;-66
2022/10/20 01:31:35;;;;;;;18.47;13.10;;;11.70;1.00;;;;;;5050287;28;21119;-65
2022/10/20 01:34:07;;;;;;;16.67;12.97;;;11.70;1.00;;;;;;5051175;28;20409;-65
2022/10/20 01:36:43;;;;;;;16.53;12.63;;;11.50;1.00;;;;;;5050977;28;20837;-65
2022/10/20 01:39:28;;;;;;;17.13;12.87;;;11.20;1.00;;;;;;5050546;28;20464;-65
2022/10/20 01:42:07;;;;;;;20.73;14.73;;;11.20;1.00;;;;;;5049320;28;20843;-66
2022/10/20 01:44:35;;;;;;;19.40;13.70;;;11.10;1.00;;;;;;5050416;28;20424;-64
2022/10/20 01:47:03;;;;;;;19.37;14.47;;;11.10;1.00;;;;;;5050502;28;20488;-64
2022/10/20 01:49:29;;;;;;;19.53;12.67;;;11.20;1.00;;;;;;5050641;28;20406;-67
2022/10/20 01:51:55;;;;;;;17.80;12.67;;;11.30;1.00;;;;;;5049899;28;20444;-66
2022/10/20 01:54:25;;;;;;;22.53;13.73;;;11.30;1.00;;;;;;5050542;28;20178;-65
2022/10/20 01:57:02;;;;;;;18.90;12.53;;;11.10;1.00;;;;;;5050278;28;20432;-65
2022/10/20 01:59:39;;;;;;;17.30;13.80;;;11.00;1.00;;;;;;5050282;28;20488;-67
2022/10/20 02:02:10;;;;;;;19.67;14.10;;;10.90;1.00;;;;;;5049192;28;20886;-65
2022/10/20 02:04:53;;;;;;;18.10;14.20;;;11.20;1.00;;;;;;5051075;28;20402;-65
2022/10/20 02:07:26;;;;;;;18.10;13.10;;;11.30;1.00;;;;;;5052006;28;20552;-66
2022/10/20 02:09:59;;;;;;;17.50;14.07;;;11.20;1.00;;;;;;5051702;28;20467;-66
2022/10/20 02:12:31;;;;;;;19.97;14.00;;;11.00;1.00;;;;;;5051740;28;20433;-66
2022/10/20 02:14:57;;;;;;;20.33;13.33;;;11.10;1.00;;;;;;5047915;28;20409;-65
2022/10/20 02:17:23;;;;;;;18.83;15.20;;;10.90;1.00;;;;;;5050469;28;20514;-64
2022/10/20 02:19:52;;;;;;;19.20;15.13;;;10.80;1.00;;;;;;5050061;28;20496;-65
2022/10/20 02:22:19;;;;;;;20.67;14.40;;;11.00;1.00;;;;;;5049509;28;20558;-66
2022/10/20 02:24:45;;;;;;;20.07;14.53;;;11.20;1.00;;;;;;5049658;28;20458;-65
2022/10/20 02:27:13;;;;;;;22.47;15.47;;;11.30;1.00;;;;;;5050042;28;20498;-66
2022/10/20 02:29:45;;;;;;;20.83;14.70;;;11.40;1.00;;;;;;5049726;28;20332;-65
2022/10/20 02:32:12;;;;;;;22.00;17.07;;;11.30;1.00;;;;;;5049038;28;20433;-64
2022/10/20 02:34:38;;;;;;;26.90;16.33;;;11.00;1.00;;;;;;5049548;28;20478;-67
2022/10/20 02:37:03;;;;;;;29.03;16.03;;;11.10;1.00;;;;;;5049799;28;20418;-67
2022/10/20 02:39:29;;;;;;;26.67;17.63;;;10.90;1.00;;;;;;5047867;28;20282;-67
2022/10/20 02:41:55;;;;;;;26.17;17.60;;;10.80;1.00;;;;;;5048586;28;20740;-67
2022/10/20 02:44:21;;;;;;;29.67;17.33;;;10.90;1.00;;;;;;5049395;28;20253;-67
2022/10/20 02:46:47;;;;;;;26.17;16.03;;;11.00;1.00;;;;;;5049607;28;20183;-67
2022/10/20 02:49:13;;;;;;;30.10;17.50;;;11.10;1.00;;;;;;5049593;28;20491;-67
2022/10/20 02:51:39;;;;;;;24.43;16.00;;;11.20;1.00;;;;;;5049120;28;20230;-67
2022/10/20 02:54:04;;;;;;;24.80;16.90;;;11.30;1.00;;;;;;5050173;28;20171;-67
2022/10/20 02:56:30;;;;;;;25.30;18.57;;;11.30;1.00;;;;;;5050319;28;20571;-67
2022/10/20 02:58:56;;;;;;;22.33;16.30;;;11.00;1.00;;;;;;5050038;28;20202;-66
2022/10/20 03:01:23;;;;;;;24.03;17.00;;;11.00;1.00;;;;;;5048559;28;20210;-65
2022/10/20 03:03:49;;;;;;;30.37;17.30;;;11.00;1.00;;;;;;5049871;28;20409;-66
2022/10/20 03:06:15;;;;;;;25.47;16.73;;;11.00;1.00;;;;;;5049011;28;20416;-66
2022/10/20 03:08:41;;;;;;;22.53;16.73;;;11.10;1.00;;;;;;5049394;28;20175;-67
2022/10/20 03:11:07;;;;;;;24.33;17.53;;;11.10;1.00;;;;;;5047974;28;20398;-66
2022/10/20 03:13:33;;;;;;;23.20;16.67;;;11.00;1.00;;;;;;5049295;28;20479;-66
2022/10/20 03:16:00;;;;;;;25.40;17.77;;;11.10;1.00;;;;;;5046678;28;20413;-65
2022/10/20 03:18:26;;;;;;;29.57;20.17;;;11.10;1.00;;;;;;5049314;28;20656;-66
2022/10/20 03:20:54;;;;;;;21.97;16.73;;;11.00;1.00;;;;;;5048107;28;20421;-66
2022/10/20 03:23:20;;;;;;;25.67;18.53;;;11.10;1.00;;;;;;5049417;28;20293;-66
2022/10/20 03:25:46;;;;;;;26.97;17.03;;;11.10;1.00;;;;;;5048703;28;20416;-66
2022/10/20 03:28:12;;;;;;;29.30;18.23;;;11.10;1.00;;;;;;5049103;28;20714;-65
2022/10/20 03:30:38;;;;;;;26.90;17.53;;;11.20;1.00;;;;;;5047537;28;20421;-65
2022/10/20 03:33:04;;;;;;;34.67;20.10;;;11.20;1.00;;;;;;5049009;28;20647;-66
2022/10/20 03:35:29;;;;;;;27.20;17.67;;;11.20;1.00;;;;;;5048629;28;20206;-66
2022/10/20 03:37:55;;;;;;;27.80;18.30;;;11.30;1.00;;;;;;5048984;28;20619;-67
2022/10/20 03:40:21;;;;;;;29.10;18.33;;;11.30;1.00;;;;;;5048405;28;20170;-66
2022/10/20 03:42:47;;;;;;;28.40;17.47;;;11.20;1.00;;;;;;5047924;28;20774;-66
2022/10/20 03:45:12;;;;;;;25.43;17.73;;;11.20;1.00;;;;;;5048001;28;20468;-66
2022/10/20 03:47:38;;;;;;;28.70;20.40;;;11.20;1.00;;;;;;5048862;28;20262;-66
2022/10/20 03:50:04;;;;;;;22.70;16.60;;;11.30;1.00;;;;;;5048403;28;20503;-66
2022/10/20 03:52:30;;;;;;;31.80;19.13;;;11.30;1.00;;;;;;5048085;28;20309;-66
2022/10/20 03:54:55;;;;;;;31.60;17.93;;;11.20;1.00;;;;;;5048444;28;20445;-65
2022/10/20 03:57:21;;;;;;;33.27;19.40;;;11.30;1.00;;;;;;5048790;28;20175;-66
2022/10/20 03:59:47;;;;;;;27.40;17.13;;;11.30;1.00;;;;;;5048458;28;20203;-67
2022/10/20 04:02:28;;;;;;;22.90;17.77;;;11.20;1.00;;;;;;5049385;28;20206;-66
2022/10/20 04:04:53;;;;;;;24.00;16.03;;;11.30;1.00;;;;;;5052601;28;20170;-66
2022/10/20 04:07:19;;;;;;;30.83;17.47;;;11.30;1.00;;;;;;5052334;28;20751;-66
2022/10/20 04:09:45;;;;;;;27.93;17.43;;;11.30;1.00;;;;;;5052081;28;20210;-65
2022/10/20 04:12:10;;;;;;;24.57;16.60;;;11.20;1.00;;;;;;5051967;28;20198;-65
2022/10/20 04:14:36;;;;;;;26.07;18.40;;;11.20;1.00;;;;;;5051270;28;20182;-66
2022/10/20 04:17:02;;;;;;;26.63;18.10;;;11.30;1.00;;;;;;5052050;28;20341;-66
2022/10/20 04:19:27;;;;;;;22.13;16.37;;;11.20;1.00;;;;;;5052562;28;20255;-64
2022/10/20 04:21:53;;;;;;;24.37;17.00;;;11.20;1.00;;;;;;5051951;28;20317;-65
2022/10/20 04:24:18;;;;;;;29.93;17.53;;;11.20;1.00;;;;;;5052450;28;20191;-65
2022/10/20 04:26:44;;;;;;;31.00;19.90;;;11.10;1.00;;;;;;5052594;28;20174;-65
2022/10/20 04:29:10;;;;;;;21.43;16.40;;;11.30;1.00;;;;;;5052440;28;20167;-65
2022/10/20 04:31:35;;;;;;;28.03;19.77;;;11.30;1.00;;;;;;5050734;28;20233;-66
2022/10/20 04:34:01;;;;;;;24.23;17.73;;;11.40;1.00;;;;;;5052145;28;20600;-65
2022/10/20 04:36:27;;;;;;;29.53;18.60;;;11.40;1.00;;;;;;5051633;28;20590;-65
2022/10/20 04:38:52;;;;;;;31.40;17.60;;;11.40;1.00;;;;;;5051998;28;20195;-65
2022/10/20 04:41:18;;;;;;;25.97;17.43;;;11.30;1.00;;;;;;5051096;28;20198;-65
2022/10/20 04:43:49;;;;;;;21.97;15.97;;;11.20;1.00;;;;;;5051783;28;20224;-65
2022/10/20 04:46:15;;;;;;;29.17;17.87;;;11.30;1.00;;;;;;5051339;28;20235;-65
2022/10/20 04:48:45;;;;;;;23.50;17.00;;;11.30;1.00;;;;;;5052512;28;20471;-66
2022/10/20 04:51:13;;;;;;;24.87;17.43;;;11.30;1.00;;;;;;5051043;28;20179;-65
2022/10/20 04:53:39;;;;;;;27.23;17.50;;;11.40;1.00;;;;;;5052006;28;20955;-65
2022/10/20 04:56:06;;;;;;;28.63;18.60;;;11.40;1.00;;;;;;5051892;28;20406;-65
2022/10/20 04:58:33;;;;;;;26.77;18.17;;;11.30;1.00;;;;;;5052088;28;20294;-66
2022/10/20 05:01:09;;;;;;;26.73;18.63;;;11.30;1.00;;;;;;5051209;28;20405;-65
2022/10/20 05:03:35;;;;;;;24.13;18.70;;;11.00;1.00;;;;;;5052091;28;20401;-65
2022/10/20 05:06:58;;;;;;;28.93;19.37;;;10.90;1.00;;;;;;5052047;28;20409;-65
2022/10/20 05:09:31;;;;;;;30.63;18.50;;;10.90;1.00;;;;;;5051905;28;20433;-66
2022/10/20 05:12:00;;;;;;;25.23;17.03;;;11.00;1.00;;;;;;5049949;28;20963;-66
2022/10/20 05:14:26;;;;;;;25.43;17.97;;;11.00;1.00;;;;;;5049441;28;20421;-66
2022/10/20 05:16:51;;;;;;;40.07;19.77;;;11.10;1.00;;;;;;5051166;28;20417;-66
2022/10/20 05:19:18;;;;;;;33.70;18.23;;;11.20;1.00;;;;;;5051753;28;20218;-67
2022/10/20 05:21:44;;;;;;;31.07;18.87;;;11.40;1.00;;;;;;5050351;28;20202;-66
2022/10/20 05:24:16;;;;;;;35.20;19.47;;;11.40;1.00;;;;;;5051436;28;20879;-67
2022/10/20 05:26:41;;;;;;;26.67;18.10;;;11.60;1.00;;;;;;5051392;28;20419;-67
2022/10/20 05:29:10;;;;;;;27.67;19.43;;;11.60;1.00;;;;;;5051354;28;20401;-66
2022/10/20 05:31:41;;;;;;;27.50;18.37;;;11.60;1.00;;;;;;5048547;28;20914;-67
2022/10/20 05:34:08;;;;;;;32.27;20.10;;;11.60;1.00;;;;;;5051166;28;20421;-68
2022/10/20 05:36:34;;;;;;;26.30;19.53;;;11.60;1.00;;;;;;5051140;28;20410;-67
2022/10/20 05:38:59;;;;;;;27.90;18.40;;;11.60;1.00;;;;;;5051256;28;20464;-65
2022/10/20 05:41:28;;;;;;;28.57;19.80;;;11.60;1.00;;;;;;5049880;28;20258;-66
2022/10/20 05:44:02;;;;;;;37.33;21.13;;;11.70;1.00;;;;;;5051238;28;20197;-66
2022/10/20 05:46:30;;;;;;;28.30;19.50;;;11.60;1.00;;;;;;5050342;28;20433;-66
2022/10/20 05:48:58;;;;;;;26.60;21.03;;;11.50;1.00;;;;;;5050704;28;20438;-67
2022/10/20 05:51:26;;;;;;;57.63;22.50;;;11.50;1.00;;;;;;5049925;28;20437;-67
2022/10/20 05:53:55;;;;;;;30.63;20.33;;;11.50;1.00;;;;;;5051458;28;20413;-67
2022/10/20 05:56:22;;;;;;;27.67;19.30;;;11.50;1.00;;;;;;5051014;28;20517;-67
2022/10/20 05:58:48;;;;;;;69.77;22.77;;;11.20;1.00;;;;;;5051311;28;20457;-67
2022/10/20 06:01:18;;;;;;;28.30;19.90;;;11.30;1.00;;;;;;5049979;28;20467;-67
2022/10/20 06:03:55;;;;;;;28.50;19.47;;;11.30;1.00;;;;;;5051337;28;20167;-67
2022/10/20 06:06:24;;;;;;;29.10;20.73;;;11.50;1.00;;;;;;5051433;28;20409;-67
2022/10/20 06:08:50;;;;;;;32.23;22.00;;;11.50;1.00;;;;;;5051377;28;20417;-67
2022/10/20 06:11:17;;;;;;;33.03;19.60;;;11.50;1.00;;;;;;5049959;28;20402;-67
2022/10/20 06:13:43;;;;;;;28.07;18.97;;;11.50;1.00;;;;;;5051401;28;20205;-67
2022/10/20 06:16:14;;;;;;;32.43;20.80;;;11.50;1.00;;;;;;5049565;28;20456;-67
2022/10/20 06:18:44;;;;;;;28.30;20.13;;;11.50;1.00;;;;;;5047855;28;22191;-67
2022/10/20 06:21:21;;;;;;;30.73;21.67;;;11.50;1.00;;;;;;5053193;28;20499;-67
2022/10/20 06:23:47;;;;;;;31.13;22.03;;;11.60;1.00;;;;;;5049549;28;20798;-67
2022/10/20 06:26:16;;;;;;;32.03;20.50;;;11.50;1.00;;;;;;5041235;28;20430;-67
2022/10/20 06:28:43;;;;;;;33.17;22.57;;;11.60;1.00;;;;;;5044097;28;20520;-67
2022/10/20 06:31:24;;;;;;;36.60;22.67;;;11.70;1.00;;;;;;5038556;28;20465;-67
2022/10/20 06:33:50;;;;;;;32.63;21.10;;;11.80;1.00;;;;;;5048871;28;20405;-66
2022/10/20 06:36:17;;;;;;;39.47;23.33;;;12.10;1.00;;;;;;5049565;28;20436;-66
2022/10/20 06:38:43;;;;;;;47.73;19.30;;;13.40;1.00;;;;;;5047495;28;20464;-66
2022/10/20 06:41:13;;;;;;;30.50;19.43;;;13.90;1.00;;;;;;5056599;28;20441;-66
2022/10/20 06:43:39;;;;;;;28.20;19.70;;;13.80;1.00;;;;;;5063060;28;20450;-66
2022/10/20 06:46:07;;;;;;;36.70;22.20;;;13.70;1.00;;;;;;5069404;28;20409;-65
2022/10/20 06:48:34;;;;;;;30.63;20.47;;;13.80;1.00;;;;;;5069938;28;20901;-65
2022/10/20 06:51:03;;;;;;;23.40;18.60;;;13.90;1.00;;;;;;5063856;28;20993;-66
2022/10/20 06:53:30;;;;;;;25.40;16.67;;;13.40;1.00;;;;;;5049677;28;20425;-65
2022/10/20 06:56:02;;;;;;;27.87;18.30;;;13.50;1.00;;;;;;5049766;28;20486;-66
2022/10/20 06:58:28;;;;;;;24.23;17.83;;;13.50;1.00;;;;;;5049842;28;20461;-66
2022/10/20 07:01:11;;;;;;;24.40;17.70;;;13.60;1.00;;;;;;5048573;28;20475;-66
2022/10/20 07:03:37;;;;;;;23.40;17.80;;;13.80;1.00;;;;;;5051749;28;20417;-66
2022/10/20 07:06:04;;;;;;;25.60;17.57;;;14.10;1.00;;;;;;5056943;28;20406;-66
2022/10/20 07:08:32;;;;;;;28.37;21.33;;;13.70;1.00;;;;;;5065314;28;20421;-66
2022/10/20 07:11:06;;;;;;;26.80;18.77;;;13.70;1.00;;;;;;5066198;28;22080;-66
2022/10/20 07:13:33;;;;;;;30.97;19.73;;;13.50;1.00;;;;;;5049495;28;20433;-65
2022/10/20 07:16:00;;;;;;;24.80;18.87;;;13.40;1.00;;;;;;5049232;28;20858;-66
2022/10/20 07:18:27;;;;;;;23.53;18.33;;;14.00;1.00;;;;;;5049942;28;20453;-66
2022/10/20 07:20:58;;;;;;;27.33;20.53;;;14.00;1.00;;;;;;5049065;28;20787;-67
2022/10/20 07:23:25;;;;;;;29.23;19.63;;;13.30;1.00;;;;;;5041817;28;20941;-67
2022/10/20 07:25:51;;;;;;;27.60;20.50;;;12.90;1.00;;;;;;5049771;28;20484;-67
2022/10/20 07:28:20;;;;;;;27.27;21.00;;;12.70;1.00;;;;;;5042071;28;20430;-66
2022/10/20 07:30:45;;;;;;;27.30;21.63;;;12.60;1.00;;;;;;5044333;28;20440;-67
2022/10/20 07:33:11;;;;;;;27.63;21.67;;;12.50;1.00;;;;;;5041772;23;20494;-68
2022/10/20 07:35:37;;;;;;;28.57;21.87;;;12.50;1.00;;;;;;5023343;28;20168;-68
2022/10/20 07:38:02;;;;;;;32.00;24.07;;;12.40;1.00;;;;;;5009844;28;20338;-68
2022/10/20 07:40:30;;;;;;;25.90;20.30;;;12.40;1.00;;;;;;5009984;28;20172;-68
2022/10/20 07:42:55;;;;;;;30.53;20.87;;;12.40;1.00;;;;;;5011748;28;20194;-71
2022/10/20 07:45:21;;;;;;;53.00;23.63;;;12.30;1.00;;;;;;5010560;28;20939;-71
2022/10/20 07:47:47;;;;;;;31.33;19.87;;;12.40;1.00;;;;;;5010151;28;20189;-70
2022/10/20 07:50:12;;;;;;;32.03;20.83;;;12.40;1.00;;;;;;5028913;28;20188;-69
2022/10/20 07:52:38;;;;;;;33.83;22.30;;;12.40;1.00;;;;;;5028026;28;20194;-70
2022/10/20 07:55:05;;;;;;;30.57;21.30;;;12.50;1.00;;;;;;5030410;28;20194;-71
2022/10/20 07:57:31;;;;;;;32.47;21.70;;;12.40;1.00;;;;;;5029335;28;20233;-69
2022/10/20 07:59:56;;;;;;;32.47;22.80;;;12.30;1.00;;;;;;5028994;28;20993;-70
2022/10/20 08:02:22;;;;;;;26.53;20.70;;;12.30;1.00;;;;;;5028743;28;20822;-69
2022/10/20 08:04:49;;;;;;;30.60;20.93;;;12.40;1.00;;;;;;5028033;28;20511;-68
2022/10/20 08:07:15;;;;;;;29.97;22.03;;;12.40;1.00;;;;;;5029222;28;20259;-69
2022/10/20 08:09:41;;;;;;;33.37;23.53;;;12.30;1.00;;;;;;5029476;28;20859;-69
2022/10/20 08:12:07;;;;;;;29.70;22.73;;;12.30;1.00;;;;;;5028758;28;20422;-70
2022/10/20 08:14:36;;;;;;;32.23;22.17;;;12.40;1.00;;;;;;5027132;28;20180;-70
2022/10/20 08:17:03;;;;;;;29.47;22.47;;;12.40;1.00;;;;;;5027527;28;20467;-70
2022/10/20 08:19:29;;;;;;;32.47;22.00;;;12.40;1.00;;;;;;5029854;28;20458;-69
2022/10/20 08:21:55;;;;;;;32.40;22.13;;;12.40;1.00;;;;;;5028776;28;20431;-69
2022/10/20 08:24:21;;;;;;;34.87;22.50;;;12.50;1.00;;;;;;5030669;28;20406;-70
2022/10/20 08:26:47;;;;;;;33.50;21.57;;;12.50;1.00;;;;;;5030334;28;20215;-67
2022/10/20 08:29:13;;;;;;;31.97;20.97;;;12.20;1.00;;;;;;5029388;28;20492;-68
2022/10/20 08:31:39;;;;;;;38.63;21.37;;;12.00;1.00;;;;;;5027864;28;20589;-67
2022/10/20 08:34:05;;;;;;;36.23;21.87;;;12.00;1.00;;;;;;5029357;28;20403;-68
2022/10/20 08:36:31;;;;;;;33.73;21.10;;;12.20;1.00;;;;;;5029528;28;20258;-67
2022/10/20 08:39:00;;;;;;;33.90;22.03;;;12.30;1.00;;;;;;5029638;28;20454;-67
2022/10/20 08:41:29;;;;;;;32.00;21.73;;;12.40;1.00;;;;;;5028553;28;20170;-67
2022/10/20 08:43:57;;;;;;;35.93;21.30;;;12.20;1.00;;;;;;5029950;28;20407;-68
2022/10/20 08:46:31;;;;;;;27.77;19.47;;;12.20;1.00;;;;;;5031866;28;20411;-68
2022/10/20 08:48:57;;;;;;;28.03;18.70;;;12.10;1.00;;;;;;5032897;28;20402;-69
2022/10/20 08:51:26;;;;;;;28.10;18.80;;;12.10;1.00;;;;;;5032363;28;20438;-70
2022/10/20 08:53:56;;;;;;;30.13;21.50;;;12.10;1.00;;;;;;5033054;28;20410;-69
2022/10/20 08:56:28;;;;;;;29.10;20.03;;;12.30;1.00;;;;;;5031849;28;20418;-70
2022/10/20 08:58:53;;;;;;;32.77;22.73;;;12.40;1.00;;;;;;5033020;28;20545;-71
2022/10/20 09:01:22;;;;;;;28.70;20.47;;;12.40;1.00;;;;;;5031812;28;20501;-71
2022/10/20 09:03:54;;;;;;;36.20;20.40;;;12.40;1.00;;;;;;5032780;28;20237;-70
2022/10/20 09:06:20;;;;;;;28.37;18.97;;;12.40;1.00;;;;;;5032949;28;20402;-71
2022/10/20 09:08:46;;;;;;;31.30;20.43;;;12.40;1.00;;;;;;5032544;28;20494;-70
2022/10/20 09:11:19;;;;;;;46.90;20.30;;;12.60;1.00;;;;;;5031974;28;20407;-70
2022/10/20 09:13:45;;;;;;;27.37;21.47;;;12.60;1.00;;;;;;5032941;28;20410;-69
2022/10/20 09:16:36;;;;;;;22.63;17.20;;;12.70;1.00;;;;;;5032039;28;20407;-68
2022/10/20 09:19:04;;;;;;;28.87;19.50;;;12.60;1.00;;;;;;5032456;28;20976;-73
2022/10/20 09:21:33;;;;;;;29.73;19.80;;;12.70;1.00;;;;;;5030192;28;20418;-70
2022/10/20 09:24:04;;;;;;;36.20;21.47;;;12.70;1.00;;;;;;5031606;28;20410;-70
2022/10/20 09:26:30;;;;;;;44.40;21.70;;;12.70;1.00;;;;;;5032642;28;20406;-70
2022/10/20 09:29:09;;;;;;;30.77;17.87;;;12.90;1.00;;;;;;5033036;28;20414;-69
2022/10/20 09:31:51;;;;;;;38.63;23.70;;;12.90;1.00;;;;;;5031113;28;20297;-67
2022/10/20 09:34:31;;;;;;;61.20;25.70;;;12.90;1.00;;;;;;5031840;28;20854;-69
2022/10/20 09:37:09;;;;;;;31.73;21.70;;;12.90;1.00;;;;;;5031557;28;20414;-70
2022/10/20 09:39:55;;;;;;;49.07;21.60;;;13.10;1.00;;;;;;5033373;28;20454;-69
2022/10/20 09:42:26;;;;;;;34.53;23.47;;;13.10;1.00;;;;;;5032940;28;20449;-67
2022/10/20 09:45:05;;;;;;;28.27;20.30;;;13.10;1.00;;;;;;5033522;28;20468;-68
2022/10/20 09:47:33;;;;;;;30.93;20.07;;;13.20;1.00;;;;;;5034964;28;20871;-68
2022/10/20 09:50:05;;;;;;;34.13;26.13;;;13.20;1.00;;;;;;5035095;28;20774;-69
2022/10/20 09:52:43;;;;;;;26.40;19.10;;;13.10;1.00;;;;;;5033436;28;20453;-69
2022/10/20 09:55:32;;;;;;;46.70;38.80;;;13.20;1.00;;;;;;5032262;28;20422;-68
2022/10/20 09:58:00;;;;;;;49.10;41.23;;;13.10;1.00;;;;;;5030129;28;20402;-70
2022/10/20 10:00:32;;;;;;;58.63;42.73;;;13.10;1.00;;;;;;5030740;28;20576;-70
2022/10/20 10:03:20;;;;;;;62.73;49.90;;;13.20;1.00;;;;;;5032519;28;20839;-69
2022/10/20 10:05:59;;;;;;;44.07;33.53;;;13.20;1.00;;;;;;5031913;28;20497;-68
2022/10/20 10:08:41;;;;;;;43.60;23.60;;;13.20;1.00;;;;;;5032515;28;20402;-69
2022/10/20 10:11:15;;;;;;;60.10;29.33;;;13.30;1.00;;;;;;5031513;28;20414;-70
2022/10/20 10:13:44;;;;;;;57.57;40.40;;;13.40;1.00;;;;;;5031724;28;20441;-69
2022/10/20 10:16:14;;;;;;;88.17;63.47;;;13.40;1.00;;;;;;5031251;28;20422;-69
2022/10/20 10:18:43;;;;;;;65.67;46.50;;;13.50;1.00;;;;;;5032605;28;20826;-68
2022/10/20 10:21:12;;;;;;;50.67;39.33;;;13.60;1.00;;;;;;5030660;28;20468;-68
2022/10/20 10:23:54;;;;;;;41.20;30.00;;;13.60;1.00;;;;;;5031467;28;20509;-69
2022/10/20 10:26:38;;;;;;;28.80;20.37;;;13.50;1.00;;;;;;5031786;28;20481;-68
2022/10/20 10:29:04;;;;;;;30.47;21.13;;;13.40;1.00;;;;;;5031683;28;20489;-67
2022/10/20 10:31:32;;;;;;;25.23;18.63;;;13.40;1.00;;;;;;5030782;28;20861;-69
2022/10/20 10:34:28;;;;;;;21.00;15.30;;;13.40;1.00;;;;;;5032269;28;20554;-68
2022/10/20 10:36:54;;;;;;;22.67;16.10;;;13.40;1.00;;;;;;5032708;28;20399;-68
2022/10/20 10:39:20;;;;;;;24.87;17.53;;;13.40;1.00;;;;;;5032109;28;20449;-68
2022/10/20 10:41:48;;;;;;;22.33;15.27;;;13.50;1.00;;;;;;5032320;28;20188;-70
2022/10/20 10:44:26;;;;;;;27.07;16.70;;;13.60;1.00;;;;;;5033002;28;21500;-67
2022/10/20 10:47:19;;;;;;;34.10;28.17;;;13.70;1.00;;;;;;5038257;28;20402;-69
2022/10/20 10:49:52;;;;;;;45.40;37.97;;;13.60;1.00;;;;;;5043453;28;20441;-68
2022/10/20 10:52:20;;;;;;;41.90;30.90;;;13.60;1.00;;;;;;5045764;28;20505;-68
2022/10/20 10:55:02;;;;;;;36.97;28.00;;;13.70;1.00;;;;;;5048261;28;20860;-68
2022/10/20 10:58:06;;;;;;;34.93;23.33;;;13.70;1.00;;;;;;5044948;28;20421;-68
2022/10/20 11:00:47;;;;;;;20.07;16.30;;;13.80;1.00;;;;;;5036908;28;20426;-72
2022/10/20 11:03:34;;;;;;;19.80;13.20;;;13.80;1.00;;;;;;5024484;28;20508;-67
2022/10/20 11:06:26;;;;;;;71.43;22.23;;;14.10;1.00;;;;;;5032402;28;20417;-70
2022/10/20 11:09:15;;;;;;;31.83;17.80;;;14.70;1.00;;;;;;5019950;28;20411;-69
2022/10/20 11:12:00;;;;;;;41.13;18.40;;;15.40;1.00;;;;;;5028958;28;20493;-66
2022/10/20 11:14:37;;;;;;;39.83;26.03;;;15.80;1.00;;;;;;5023245;28;20461;-68
2022/10/20 11:17:15;;;;;;;66.03;38.27;;;15.30;1.00;;;;;;5030867;28;20410;-69
2022/10/20 11:20:08;;;;;;;57.47;36.73;;;14.90;1.00;;;;;;5030244;28;20461;-67
2022/10/20 11:22:50;;;;;;;52.47;36.83;;;14.50;1.00;;;;;;5029070;28;20456;-68
2022/10/20 11:25:48;;;;;;;55.40;42.93;;;14.30;1.00;;;;;;5034352;28;20403;-68
2022/10/20 11:28:31;;;;;;;46.60;32.80;;;14.20;1.00;;;;;;5030627;28;20398;-67
2022/10/20 11:30:59;;;;;;;54.33;32.27;;;14.20;1.00;;;;;;5022738;28;20553;-69
2022/10/20 11:33:45;;;;;;;167.33;48.03;;;14.30;1.00;;;;;;5023980;28;20465;-69
2022/10/20 11:36:17;;;;;;;86.00;31.83;;;14.40;1.00;;;;;;5027212;28;20425;-68
2022/10/20 11:38:49;;;;;;;41.47;20.50;;;14.50;1.00;;;;;;5028740;28;20457;-66
2022/10/20 11:41:31;;;;;;;46.73;17.10;;;14.60;1.00;;;;;;5030206;28;20499;-68
2022/10/20 11:44:05;;;;;;;101.63;21.13;;;14.60;1.00;;;;;;5031489;28;20447;-66
2022/10/20 11:46:51;;;;;;;56.93;19.80;;;14.50;1.00;;;;;;5030809;28;20502;-67
2022/10/20 11:49:17;;;;;;;25.20;14.90;;;14.60;1.00;;;;;;5028952;28;20455;-66
2022/10/20 11:51:52;;;;;;;19.30;14.03;;;14.60;1.00;;;;;;5028575;28;20470;-70
2022/10/20 11:54:42;;;;;;;21.07;14.37;;;14.60;1.00;;;;;;5037405;28;20421;-68
2022/10/20 11:57:49;;;;;;;32.97;14.93;;;14.60;1.00;;;;;;5030903;28;20850;-69
2022/10/20 12:00:41;;;;;;;39.57;15.27;;;14.70;1.00;;;;;;5024722;28;20473;-68
2022/10/20 12:03:35;;;;;;;18.10;13.30;;;14.70;1.00;;;;;;5025560;28;20513;-68
2022/10/20 12:06:19;;;;;;;21.00;14.70;;;14.80;1.00;;;;;;5025174;28;20434;-70
2022/10/20 12:09:13;;;;;;;18.00;14.10;;;14.90;1.00;;;;;;5023453;28;20430;-69
2022/10/20 12:12:08;;;;;;;16.90;13.80;;;14.90;1.00;;;;;;5025401;28;20405;-69
2022/10/20 12:14:43;;;;;;;14.27;12.43;;;14.90;1.00;;;;;;5018054;28;20589;-71
2022/10/20 12:17:34;;;;;;;21.50;12.50;;;15.10;1.00;;;;;;5037161;28;20483;-70
2022/10/20 12:20:19;;;;;;;20.00;13.17;;;15.10;1.00;;;;;;5028843;28;20469;-70
2022/10/20 12:22:48;;;;;;;24.00;15.53;;;15.10;1.00;;;;;;5033226;28;20418;-70
2022/10/20 12:25:21;;;;;;;20.87;15.13;;;15.20;1.00;;;;;;5032316;28;20430;-69
2022/10/20 12:28:18;;;;;;;26.70;16.47;;;15.20;1.00;;;;;;5033355;28;20497;-71
2022/10/20 12:30:59;;;;;;;18.27;12.83;;;15.20;1.00;;;;;;5012056;28;20505;-70
2022/10/20 12:33:53;;;;;;;22.10;12.93;;;15.20;1.00;;;;;;5012987;28;20451;-71
2022/10/20 12:36:19;;;;;;;14.97;12.23;;;15.20;1.00;;;;;;5013201;28;20418;-70
2022/10/20 12:38:47;;;;;;;17.13;13.63;;;15.20;1.00;;;;;;5013453;28;20451;-69
2022/10/20 12:41:32;;;;;;;16.33;13.47;;;15.10;1.00;;;;;;5012260;28;20164;-69
2022/10/20 12:44:05;;;;;;;19.67;14.27;;;15.10;1.00;;;;;;5021136;28;20406;-71
2022/10/20 12:46:32;;;;;;;20.70;14.40;;;15.10;1.00;;;;;;5033490;28;20720;-70
2022/10/20 12:49:03;;;;;;;15.07;12.90;;;15.00;1.00;;;;;;5033508;28;20410;-68
2022/10/20 12:51:59;;;;;;;15.93;14.10;;;15.00;1.00;;;;;;5031878;28;20487;-70
2022/10/20 12:54:28;;;;;;;47.10;16.67;;;14.90;1.00;;;;;;5029484;28;20465;-69
2022/10/20 12:57:00;;;;;;;25.43;16.33;;;14.80;1.00;;;;;;5031727;28;20549;-70